Time;durP1;ratioP1;P1;durP2;ratioP2;P2;SDS_P1;SDS_P2;PMS_P1;PMS_P2;Temp;Humidity;BMP_temperature;BMP_pressure;BME280_temperature;BME280_humidity;BME280_pressure;Samples;Min_cycle;Max_cycle;Signal;HPM_P1;HPM_P2
2022/04/11 00:04:41;;;;;;;20.65;8.60;;;;;;;;;;10437054;28;20111;-72
2022/04/11 00:09:44;;;;;;;13.13;7.55;;;;;;;;;;10435526;28;20069;-71
2022/04/11 00:14:48;;;;;;;13.07;8.07;;;;;;;;;;10434696;28;20044;-71
2022/04/11 00:19:50;;;;;;;15.20;7.72;;;;;;;;;;10435476;28;20041;-72
2022/04/11 00:24:53;;;;;;;14.23;7.93;;;;;;;;;;10451530;28;20049;-71
2022/04/11 00:29:58;;;;;;;18.92;8.52;;;;;;;;;;10434752;28;20045;-72
2022/04/11 00:35:00;;;;;;;16.67;8.18;;;;;;;;;;10408425;28;20083;-71
2022/04/11 00:40:02;;;;;;;16.23;8.45;;;;;;;;;;10436052;28;20064;-71
2022/04/11 00:45:08;;;;;;;17.10;8.60;;;;;;;;;;10434929;28;20044;-72
2022/04/11 00:50:11;;;;;;;18.38;8.60;;;;;;;;;;10433935;28;20060;-72
2022/04/11 00:55:14;;;;;;;23.05;9.48;;;;;;;;;;10435432;28;20041;-71
2022/04/11 01:00:19;;;;;;;16.10;9.07;;;;;;;;;;10473135;28;20041;-71
2022/04/11 01:05:21;;;;;;;17.33;9.07;;;;;;;;;;10468566;28;20044;-71
2022/04/11 01:10:23;;;;;;;16.40;8.85;;;;;;;;;;10434178;28;20053;-71
2022/04/11 01:15:27;;;;;;;19.17;8.85;;;;;;;;;;10433654;28;20033;-71
2022/04/11 01:20:30;;;;;;;13.80;8.40;;;;;;;;;;10445946;28;20290;-71
2022/04/11 01:25:34;;;;;;;15.70;7.82;;;;;;;;;;10475001;28;20340;-71
2022/04/11 01:30:36;;;;;;;15.55;8.88;;;;;;;;;;10444079;28;20049;-70
2022/04/11 01:35:39;;;;;;;13.40;8.00;;;;;;;;;;10432987;28;20075;-71
2022/04/11 01:40:50;;;;;;;14.48;7.93;;;;;;;;;;10433483;28;20344;-71
2022/04/11 01:45:53;;;;;;;15.95;8.20;;;;;;;;;;10444580;28;20053;-71
2022/04/11 01:50:56;;;;;;;18.33;8.63;;;;;;;;;;10474213;28;20070;-71
2022/04/11 01:56:00;;;;;;;15.63;8.30;;;;;;;;;;10441816;28;20041;-72
2022/04/11 02:01:02;;;;;;;16.98;8.35;;;;;;;;;;10432453;28;20068;-71
2022/04/11 02:06:05;;;;;;;19.20;7.72;;;;;;;;;;10439219;28;20037;-72
2022/04/11 02:11:09;;;;;;;25.85;8.55;;;;;;;;;;10456892;28;20056;-73
2022/04/11 02:16:11;;;;;;;20.80;9.57;;;;;;;;;;10431122;28;20056;-71
2022/04/11 02:21:14;;;;;;;16.63;9.93;;;;;;;;;;10437201;28;20069;-71
2022/04/11 02:26:18;;;;;;;18.95;8.27;;;;;;;;;;10466944;28;20344;-71
2022/04/11 02:31:20;;;;;;;20.55;9.02;;;;;;;;;;10434360;28;20045;-71
2022/04/11 02:36:23;;;;;;;16.30;10.38;;;;;;;;;;10442106;28;20072;-71
2022/04/11 02:41:27;;;;;;;20.17;10.48;;;;;;;;;;10461705;28;20037;-72
2022/04/11 02:46:29;;;;;;;18.90;8.68;;;;;;;;;;10430730;28;20073;-72
2022/04/11 02:51:32;;;;;;;16.38;8.20;;;;;;;;;;10438578;28;20049;-71
2022/04/11 02:56:36;;;;;;;20.50;9.32;;;;;;;;;;10462765;28;20037;-72
2022/04/11 03:01:38;;;;;;;22.73;8.65;;;;;;;;;;10437352;28;20056;-72
2022/04/11 03:06:40;;;;;;;25.92;10.18;;;;;;;;;;10438374;28;20224;-72
2022/04/11 03:11:44;;;;;;;19.33;9.02;;;;;;;;;;10438219;28;20084;-71
2022/04/11 03:16:46;;;;;;;22.67;8.68;;;;;;;;;;10437582;28;20041;-71
2022/04/11 03:21:49;;;;;;;22.20;9.52;;;;;;;;;;10436966;28;20057;-72
2022/04/11 03:26:53;;;;;;;25.08;8.98;;;;;;;;;;10438938;28;20048;-72
2022/04/11 03:31:56;;;;;;;28.33;10.73;;;;;;;;;;10441169;28;20049;-71
2022/04/11 03:36:58;;;;;;;24.20;9.70;;;;;;;;;;10448358;28;20084;-71
2022/04/11 03:42:02;;;;;;;21.77;9.95;;;;;;;;;;10447555;28;20412;-71
2022/04/11 03:47:06;;;;;;;23.05;10.48;;;;;;;;;;10437785;28;20247;-72
2022/04/11 03:52:09;;;;;;;35.25;12.18;;;;;;;;;;10436451;28;20431;-72
2022/04/11 03:57:13;;;;;;;32.45;12.00;;;;;;;;;;10436340;28;20108;-72
2022/04/11 04:02:15;;;;;;;23.48;10.38;;;;;;;;;;10449390;28;20328;-71
2022/04/11 04:07:17;;;;;;;24.02;10.75;;;;;;;;;;10479305;28;20060;-72
2022/04/11 04:12:22;;;;;;;21.88;9.48;;;;;;;;;;10477843;28;20075;-72
2022/04/11 04:17:24;;;;;;;17.90;8.93;;;;;;;;;;10454054;28;20049;-72
2022/04/11 04:22:28;;;;;;;27.88;11.43;;;;;;;;;;10434585;28;20237;-72
2022/04/11 04:27:31;;;;;;;23.67;10.73;;;;;;;;;;10437715;28;20056;-72
2022/04/11 04:32:34;;;;;;;23.52;10.13;;;;;;;;;;10436206;28;20072;-72
2022/04/11 04:37:38;;;;;;;18.67;7.80;;;;;;;;;;10433678;28;20061;-71
2022/04/11 04:42:42;;;;;;;14.75;7.38;;;;;;;;;;10434290;28;20054;-73
2022/04/11 04:47:44;;;;;;;23.83;7.40;;;;;;;;;;10461652;28;20041;-73
2022/04/11 04:52:46;;;;;;;18.70;8.40;;;;;;;;;;10475278;28;20045;-72
2022/04/11 04:57:50;;;;;;;14.57;8.30;;;;;;;;;;10447436;28;20348;-72
2022/04/11 05:02:53;;;;;;;15.00;7.47;;;;;;;;;;10434009;28;20041;-72
2022/04/11 05:07:55;;;;;;;15.73;7.18;;;;;;;;;;10455617;28;20068;-72
2022/04/11 05:12:59;;;;;;;14.45;7.63;;;;;;;;;;10444305;28;20072;-72
2022/04/11 05:18:01;;;;;;;17.30;8.35;;;;;;;;;;10433700;28;20063;-74
2022/04/11 05:23:05;;;;;;;15.38;6.80;;;;;;;;;;10432327;28;20104;-72
2022/04/11 05:28:09;;;;;;;13.43;7.80;;;;;;;;;;10431967;28;20312;-72
2022/04/11 05:33:11;;;;;;;12.95;7.28;;;;;;;;;;10438693;28;20045;-73
2022/04/11 05:38:16;;;;;;;13.52;7.35;;;;;;;;;;10433437;28;20073;-76
2022/04/11 05:43:20;;;;;;;10.15;5.30;;;;;;;;;;10433102;28;20053;-72
2022/04/11 05:48:22;;;;;;;8.45;4.38;;;;;;;;;;10433126;28;20049;-73
2022/04/11 05:53:24;;;;;;;6.90;3.60;;;;;;;;;;10432643;28;20272;-72
2022/04/11 05:58:28;;;;;;;9.27;4.60;;;;;;;;;;10442232;28;20053;-73
2022/04/11 06:03:30;;;;;;;10.77;4.75;;;;;;;;;;10474757;28;20057;-71
2022/04/11 06:08:33;;;;;;;10.75;4.75;;;;;;;;;;10449105;28;20064;-73
2022/04/11 06:13:42;;;;;;;4.78;3.50;;;;;;;;;;10433363;28;20083;-71
2022/04/11 06:18:45;;;;;;;7.32;3.70;;;;;;;;;;10445894;28;20049;-73
2022/04/11 06:23:48;;;;;;;5.43;3.10;;;;;;;;;;10431368;28;20057;-71
2022/04/11 06:28:51;;;;;;;4.60;2.80;;;;;;;;;;10431364;28;20045;-71
2022/04/11 06:33:54;;;;;;;4.53;2.70;;;;;;;;;;10433190;28;20240;-73
2022/04/11 06:38:57;;;;;;;7.00;3.30;;;;;;;;;;10438737;28;20255;-73
2022/04/11 06:44:01;;;;;;;6.32;2.95;;;;;;;;;;10438878;28;20049;-70
2022/04/11 06:49:03;;;;;;;6.38;4.05;;;;;;;;;;10441885;28;20079;-75
2022/04/11 06:54:06;;;;;;;8.02;3.60;;;;;;;;;;10477196;28;20048;-72
2022/04/11 06:59:09;;;;;;;;;;;;;;;;;;10438222;28;20052;-70
2022/04/11 07:04:12;;;;;;;7.88;4.93;;;;;;;;;;10438219;28;19963;-75
2022/04/11 07:09:14;;;;;;;9.52;4.20;;;;;;;;;;10401111;28;20054;-73
2022/04/11 07:14:18;;;;;;;9.05;4.85;;;;;;;;;;10473128;28;20076;-74
2022/04/11 07:19:20;;;;;;;8.27;4.60;;;;;;;;;;10437301;28;20045;-74
2022/04/11 07:24:23;;;;;;;10.77;6.80;;;;;;;;;;10436936;28;20295;-70
2022/04/11 07:29:27;;;;;;;10.77;5.80;;;;;;;;;;10437032;28;20352;-74
2022/04/11 07:34:29;;;;;;;9.95;5.13;;;;;;;;;;10435063;28;20073;-74
2022/04/11 07:39:32;;;;;;;7.40;4.50;;;;;;;;;;10436752;28;20405;-70
2022/04/11 07:44:36;;;;;;;14.33;5.80;;;;;;;;;;10439591;28;20336;-74
2022/04/11 07:49:40;;;;;;;;;;;;;;;;;;10435948;28;20391;-72
2022/04/11 07:54:43;;;;;;;4.97;3.03;;;;;;;;;;10434619;28;20201;-72
2022/04/11 07:59:46;;;;;;;;;;;;;;;;;;10435481;28;20076;-75
2022/04/11 08:04:49;;;;;;;14.75;4.50;;;;;;;;;;10447470;28;19917;-72
2022/04/11 08:09:52;;;;;;;12.40;4.63;;;;;;;;;;10436480;28;20049;-73
2022/04/11 08:14:56;;;;;;;10.13;3.85;;;;;;;;;;10436009;28;20409;-71
2022/04/11 08:19:58;;;;;;;9.77;3.40;;;;;;;;;;10434391;28;20054;-71
2022/04/11 08:25:01;;;;;;;8.73;3.22;;;;;;;;;;10445456;28;20083;-70
2022/04/11 08:30:06;;;;;;;5.72;3.83;;;;;;;;;;10405417;28;20046;-75
2022/04/11 08:35:09;;;;;;;6.53;2.95;;;;;;;;;;10410342;28;20091;-72
2022/04/11 08:40:13;;;;;;;4.17;2.50;;;;;;;;;;10476572;28;20111;-72
2022/04/11 08:45:20;;;;;;;5.43;3.65;;;;;;;;;;10451179;28;20041;-73
2022/04/11 08:50:22;;;;;;;5.75;3.60;;;;;;;;;;10490173;28;20053;-74
2022/04/11 08:55:25;;;;;;;6.97;3.70;;;;;;;;;;10451312;28;20049;-73
2022/04/11 09:00:31;;;;;;;5.27;3.27;;;;;;;;;;10433318;28;20049;-73
2022/04/11 09:05:34;;;;;;;7.07;3.30;;;;;;;;;;10447741;28;20053;-73
2022/04/11 09:10:37;;;;;;;5.53;3.08;;;;;;;;;;10441373;28;20041;-71
2022/04/11 09:15:45;;;;;;;3.55;1.80;;;;;;;;;;10482972;28;20048;-73
2022/04/11 09:20:50;;;;;;;1.70;1.30;;;;;;;;;;10488507;28;20048;-70
2022/04/11 09:25:53;;;;;;;6.32;1.80;;;;;;;;;;10442725;28;20052;-73
2022/04/11 09:31:06;;;;;;;1.40;1.30;;;;;;;;;;10433379;28;20106;-74
2022/04/11 09:36:09;;;;;;;4.60;1.80;;;;;;;;;;10442478;28;20065;-74
2022/04/11 09:41:12;;;;;;;3.28;1.65;;;;;;;;;;10431177;28;20337;-72
2022/04/11 09:46:16;;;;;;;3.25;1.80;;;;;;;;;;10429674;28;20056;-73
2022/04/11 09:51:18;;;;;;;3.28;2.00;;;;;;;;;;10430181;28;20087;-75
2022/04/11 09:56:22;;;;;;;4.38;2.40;;;;;;;;;;10448759;28;20279;-73
2022/04/11 10:01:26;;;;;;;2.80;2.30;;;;;;;;;;10424032;28;20096;-73
2022/04/11 10:06:29;;;;;;;4.07;2.35;;;;;;;;;;10429887;28;20045;-75
2022/04/11 10:11:31;;;;;;;8.38;3.53;;;;;;;;;;10434655;28;20050;-72
2022/04/11 10:16:35;;;;;;;15.88;3.30;;;;;;;;;;10435867;28;20355;-73
2022/04/11 10:21:42;;;;;;;6.03;4.03;;;;;;;;;;10459697;28;20040;-72
2022/04/11 10:26:45;;;;;;;3.80;2.03;;;;;;;;;;10442237;28;20049;-70
2022/04/11 10:32:05;;;;;;;4.75;2.25;;;;;;;;;;10433390;28;20240;-70
2022/04/11 10:37:10;;;;;;;3.88;2.65;;;;;;;;;;10300203;28;4193446;-74
2022/04/11 10:42:15;;;;;;;3.08;2.13;;;;;;;;;;10440258;28;20045;-73
2022/04/11 10:47:31;;;;;;;3.00;2.55;;;;;;;;;;10439317;28;20042;-76
2022/04/11 10:52:35;;;;;;;4.78;3.55;;;;;;;;;;10452039;28;20045;-73
2022/04/11 10:57:39;;;;;;;5.20;3.00;;;;;;;;;;10437758;28;20064;-75
2022/04/11 11:03:00;;;;;;;;;;;;;;;;;;10438597;28;20042;-74
2022/04/11 11:08:32;;;;;;;3.72;3.35;;;;;;;;;;10439036;28;19928;-72
2022/04/11 11:13:40;;;;;;;7.22;3.35;;;;;;;;;;10457818;28;20056;-73
2022/04/11 11:19:10;;;;;;;7.82;4.78;;;;;;;;;;10479443;28;20052;-73
2022/04/11 11:24:16;;;;;;;7.63;4.18;;;;;;;;;;10474943;28;20048;-73
2022/04/11 11:29:21;;;;;;;8.35;5.53;;;;;;;;;;10452510;28;20072;-75
2022/04/11 11:34:26;;;;;;;7.15;4.68;;;;;;;;;;10436650;28;20045;-71
2022/04/11 11:39:31;;;;;;;10.38;6.18;;;;;;;;;;10434964;28;20073;-74
2022/04/11 11:44:43;;;;;;;10.23;7.00;;;;;;;;;;10436932;28;20403;-74
2022/04/11 11:49:46;;;;;;;7.15;5.50;;;;;;;;;;10449535;28;20041;-73
2022/04/11 11:54:52;;;;;;;8.20;5.60;;;;;;;;;;10433125;28;20068;-74
2022/04/11 11:59:56;;;;;;;9.70;3.95;;;;;;;;;;10448857;28;20048;-72
2022/04/11 12:04:58;;;;;;;7.18;3.35;;;;;;;;;;10435789;28;20116;-72
2022/04/11 12:10:02;;;;;;;7.57;3.95;;;;;;;;;;10437542;28;20301;-75
2022/04/11 12:15:07;;;;;;;19.08;10.35;;;;;;;;;;10432267;28;20336;-76
2022/04/11 12:20:12;;;;;;;27.02;13.23;;;;;;;;;;10433879;28;20104;-71
2022/04/11 12:25:24;;;;;;;13.48;6.00;;;;;;;;;;10461204;28;20041;-73
2022/04/11 12:30:27;;;;;;;11.40;4.15;;;;;;;;;;10441352;28;20053;-74
2022/04/11 12:35:29;;;;;;;7.88;4.15;;;;;;;;;;10434477;28;20053;-71
2022/04/11 12:40:51;;;;;;;8.55;4.10;;;;;;;;;;10484785;28;20523;-72
2022/04/11 12:46:05;;;;;;;8.65;4.20;;;;;;;;;;10485139;28;20064;-73
2022/04/11 12:51:11;;;;;;;7.07;5.07;;;;;;;;;;10461941;28;20057;-73
2022/04/11 12:56:15;;;;;;;8.55;6.07;;;;;;;;;;10466871;28;20071;-73
2022/04/11 13:01:17;;;;;;;8.50;5.00;;;;;;;;;;10475573;28;20064;-74
2022/04/11 13:06:19;;;;;;;7.53;4.38;;;;;;;;;;10437125;28;20382;-72
2022/04/11 13:11:23;;;;;;;4.30;3.15;;;;;;;;;;10469051;28;20271;-72
2022/04/11 13:21:48;;;;;;;13.38;4.95;;;;;;;;;;10444669;28;20336;-72
2022/04/11 13:26:52;;;;;;;5.38;4.30;;;;;;;;;;10432772;28;20071;-72
2022/04/11 13:31:54;;;;;;;8.13;4.78;;;;;;;;;;10430911;28;20065;-72
2022/04/11 13:36:56;;;;;;;10.52;6.57;;;;;;;;;;10433279;28;20073;-70
2022/04/11 13:42:01;;;;;;;8.65;4.00;;;;;;;;;;10432446;28;20042;-71
2022/04/11 13:47:04;;;;;;;4.33;3.90;;;;;;;;;;10439559;28;20053;-70
2022/04/11 13:52:09;;;;;;;6.30;3.95;;;;;;;;;;10432223;28;20298;-70
2022/04/11 13:57:12;;;;;;;6.70;4.40;;;;;;;;;;10432531;28;20080;-71
2022/04/11 14:02:14;;;;;;;7.35;4.78;;;;;;;;;;10432521;28;20049;-72
2022/04/11 14:07:17;;;;;;;5.90;4.13;;;;;;;;;;10429776;28;20091;-69
2022/04/11 14:12:20;;;;;;;5.15;3.83;;;;;;;;;;10431707;28;20343;-71
2022/04/11 14:17:23;;;;;;;7.43;4.28;;;;;;;;;;10430073;28;20049;-70
2022/04/11 14:22:25;;;;;;;8.63;5.18;;;;;;;;;;10431203;28;20363;-69
2022/04/11 14:27:29;;;;;;;9.60;4.70;;;;;;;;;;10432306;28;20041;-72
2022/04/11 14:32:31;;;;;;;9.02;5.30;;;;;;;;;;10413438;28;20088;-72
2022/04/11 14:37:35;;;;;;;9.00;5.57;;;;;;;;;;10431608;28;20119;-70
2022/04/11 14:42:38;;;;;;;6.60;5.65;;;;;;;;;;10430881;28;20053;-70
2022/04/11 14:47:41;;;;;;;14.63;7.53;;;;;;;;;;10425576;28;20052;-73
2022/04/11 14:52:43;;;;;;;26.25;13.95;;;;;;;;;;10431608;28;20060;-72
2022/04/11 14:57:47;;;;;;;16.88;9.30;;;;;;;;;;10436796;28;20320;-69
2022/04/11 15:02:49;;;;;;;18.85;10.23;;;;;;;;;;10439628;28;20366;-69
2022/04/11 15:07:51;;;;;;;10.43;7.25;;;;;;;;;;10438003;28;20064;-70
2022/04/11 15:12:55;;;;;;;10.95;7.57;;;;;;;;;;10437014;28;20056;-69
2022/04/11 15:17:57;;;;;;;19.45;11.05;;;;;;;;;;10435914;28;20049;-71
2022/04/11 15:23:00;;;;;;;18.70;10.32;;;;;;;;;;10436583;28;20385;-72
2022/04/11 15:28:05;;;;;;;12.85;8.75;;;;;;;;;;10436830;28;20042;-68
2022/04/11 15:33:09;;;;;;;15.55;9.27;;;;;;;;;;10436414;28;20081;-72
2022/04/11 15:38:12;;;;;;;19.25;9.38;;;;;;;;;;10438145;28;20308;-74
2022/04/11 15:43:16;;;;;;;22.48;10.48;;;;;;;;;;10435260;28;20049;-72
2022/04/11 15:48:19;;;;;;;13.82;8.25;;;;;;;;;;10436097;28;20254;-71
2022/04/11 15:53:21;;;;;;;10.38;7.38;;;;;;;;;;10436877;28;20053;-72
2022/04/11 15:58:25;;;;;;;13.55;7.60;;;;;;;;;;10434807;28;20206;-72
2022/04/11 16:03:28;;;;;;;15.85;9.05;;;;;;;;;;10434637;28;20414;-72
2022/04/11 16:08:30;;;;;;;13.63;7.88;;;;;;;;;;10434594;28;20172;-73
2022/04/11 16:13:35;;;;;;;17.30;8.32;;;;;;;;;;10435452;28;20252;-71
2022/04/11 16:18:38;;;;;;;22.77;13.33;;;;;;;;;;10434864;28;20219;-74
2022/04/11 16:23:40;;;;;;;28.92;17.83;;;;;;;;;;10426726;28;20098;-70
2022/04/11 16:28:45;;;;;;;14.00;9.20;;;;;;;;;;10426149;28;20046;-71
2022/04/11 16:33:48;;;;;;;19.42;10.82;;;;;;;;;;10440898;28;20060;-70
2022/04/11 16:38:51;;;;;;;21.38;11.35;;;;;;;;;;10435288;28;20062;-72
2022/04/11 16:43:55;;;;;;;16.40;7.68;;;;;;;;;;10435096;28;20352;-73
2022/04/11 16:48:58;;;;;;;8.00;6.10;;;;;;;;;;10433782;28;20057;-72
2022/04/11 16:54:00;;;;;;;11.45;7.13;;;;;;;;;;10435260;28;20053;-71
2022/04/11 16:59:07;;;;;;;9.77;7.22;;;;;;;;;;10431184;28;20045;-73
2022/04/11 17:04:09;;;;;;;30.50;15.70;;;;;;;;;;10407303;28;20234;-72
2022/04/11 17:09:12;;;;;;;89.13;42.78;;;;;;;;;;10433400;28;20060;-72
2022/04/11 17:14:15;;;;;;;40.08;20.23;;;;;;;;;;10430327;28;21590;-72
2022/04/11 17:19:18;;;;;;;19.23;12.57;;;;;;;;;;10431464;28;20075;-69
2022/04/11 17:24:20;;;;;;;24.25;13.52;;;;;;;;;;10431222;28;20372;-73
2022/04/11 17:29:24;;;;;;;26.67;15.00;;;;;;;;;;10432997;28;20049;-73
2022/04/11 17:34:32;;;;;;;27.67;14.82;;;;;;;;;;10430500;28;20245;-72
2022/04/11 17:39:35;;;;;;;27.02;14.35;;;;;;;;;;10433217;28;20119;-69
2022/04/11 17:44:39;;;;;;;29.95;17.27;;;;;;;;;;10432751;28;20044;-72
2022/04/11 17:49:42;;;;;;;33.90;18.55;;;;;;;;;;10433254;28;20384;-73
2022/04/11 17:54:44;;;;;;;38.92;21.40;;;;;;;;;;10432671;28;20053;-69
2022/04/11 17:59:48;;;;;;;48.00;25.90;;;;;;;;;;10427382;28;20041;-72
2022/04/11 18:04:50;;;;;;;47.10;24.77;;;;;;;;;;10429977;28;20083;-69
2022/04/11 18:09:53;;;;;;;46.13;27.02;;;;;;;;;;10433485;28;20057;-72
2022/04/11 18:14:57;;;;;;;54.00;29.23;;;;;;;;;;10432793;28;20095;-74
2022/04/11 18:19:59;;;;;;;52.30;29.70;;;;;;;;;;10430601;28;20140;-71
2022/04/11 18:25:02;;;;;;;56.53;33.85;;;;;;;;;;10432539;28;20061;-72
2022/04/11 18:35:28;;;;;;;64.00;31.10;;;;;;;;;;10440280;28;20060;-72
2022/04/11 18:40:30;;;;;;;60.22;29.85;;;;;;;;;;10451853;28;20217;-71
2022/04/11 18:45:35;;;;;;;60.38;29.95;;;;;;;;;;10426495;28;20271;-73
2022/04/11 18:50:38;;;;;;;62.28;30.60;;;;;;;;;;10427201;28;20044;-72
2022/04/11 18:55:40;;;;;;;62.22;30.73;;;;;;;;;;10438304;28;20061;-71
2022/04/11 19:00:46;;;;;;;79.07;35.80;;;;;;;;;;10437834;28;20364;-73
2022/04/11 19:05:48;;;;;;;70.35;38.40;;;;;;;;;;10451776;28;20072;-73
2022/04/11 19:10:51;;;;;;;53.90;27.08;;;;;;;;;;10433816;28;20321;-70
2022/04/11 19:15:55;;;;;;;66.20;32.60;;;;;;;;;;10422972;28;20045;-69
2022/04/11 19:20:59;;;;;;;54.75;27.25;;;;;;;;;;10426231;28;20045;-72
2022/04/11 19:26:01;;;;;;;59.17;28.88;;;;;;;;;;10443748;28;20096;-71
2022/04/11 19:31:05;;;;;;;78.05;35.53;;;;;;;;;;10448272;28;20352;-69
2022/04/11 19:36:13;;;;;;;61.35;31.70;;;;;;;;;;10436096;28;20357;-71
2022/04/11 19:41:16;;;;;;;73.57;34.65;;;;;;;;;;10450111;28;20048;-71
2022/04/11 19:46:20;;;;;;;72.82;35.97;;;;;;;;;;10436556;28;20332;-72
2022/04/11 19:51:24;;;;;;;75.82;34.15;;;;;;;;;;10444872;28;20048;-68
2022/04/11 19:56:27;;;;;;;70.38;33.95;;;;;;;;;;10436336;28;20084;-73
2022/04/11 20:01:31;;;;;;;68.88;33.05;;;;;;;;;;10447665;28;20087;-72
2022/04/11 20:06:34;;;;;;;59.92;27.95;;;;;;;;;;10436190;28;20048;-72
2022/04/11 20:11:37;;;;;;;61.13;29.33;;;;;;;;;;10433950;28;20348;-70
2022/04/11 20:16:40;;;;;;;68.68;32.30;;;;;;;;;;10436743;28;20049;-73
2022/04/11 20:21:43;;;;;;;73.82;39.30;;;;;;;;;;10434496;28;20336;-72
2022/04/11 20:26:46;;;;;;;63.45;32.97;;;;;;;;;;10433603;28;20045;-70
2022/04/11 20:31:52;;;;;;;57.63;29.65;;;;;;;;;;10441373;28;20329;-70
2022/04/11 20:36:55;;;;;;;64.70;30.67;;;;;;;;;;10441905;28;20060;-72
2022/04/11 20:41:58;;;;;;;65.85;29.83;;;;;;;;;;10434648;28;20101;-70
2022/04/11 20:47:02;;;;;;;89.57;37.45;;;;;;;;;;10434954;28;20053;-72
2022/04/11 20:52:05;;;;;;;74.57;36.25;;;;;;;;;;10433688;28;20045;-70
2022/04/11 20:57:08;;;;;;;94.55;42.63;;;;;;;;;;10434320;28;20090;-74
2022/04/11 21:02:12;;;;;;;94.90;42.55;;;;;;;;;;10433153;28;20049;-70
2022/04/11 21:07:14;;;;;;;99.93;44.80;;;;;;;;;;10448459;28;20044;-70
2022/04/11 21:12:17;;;;;;;101.65;44.83;;;;;;;;;;10465001;28;20045;-72
2022/04/11 21:17:20;;;;;;;93.10;43.17;;;;;;;;;;10435102;28;20041;-74
2022/04/11 21:22:23;;;;;;;101.45;45.80;;;;;;;;;;10452040;28;20049;-72
2022/04/11 21:27:26;;;;;;;95.20;44.03;;;;;;;;;;10463253;28;20381;-72
2022/04/11 21:32:29;;;;;;;101.22;42.30;;;;;;;;;;10430929;28;20042;-72
2022/04/11 21:37:33;;;;;;;105.22;45.47;;;;;;;;;;10431285;28;20064;-72
2022/04/11 21:42:36;;;;;;;93.68;42.50;;;;;;;;;;10451120;28;20221;-71
2022/04/11 21:47:40;;;;;;;85.95;39.13;;;;;;;;;;10468797;28;20071;-72
2022/04/11 21:52:42;;;;;;;88.07;39.95;;;;;;;;;;10432207;28;20049;-73
2022/04/11 21:57:45;;;;;;;80.88;37.03;;;;;;;;;;10432773;28;20244;-70
2022/04/11 22:08:09;;;;;;;122.22;52.58;;;;;;;;;;10456663;28;20285;-71
2022/04/11 22:13:12;;;;;;;127.75;53.53;;;;;;;;;;10439052;28;20041;-71
2022/04/11 22:18:15;;;;;;;119.32;54.20;;;;;;;;;;10440797;28;20049;-72
2022/04/11 22:23:21;;;;;;;129.35;54.50;;;;;;;;;;10440941;28;20061;-71
2022/04/11 22:28:23;;;;;;;126.90;55.42;;;;;;;;;;10437815;28;20099;-69
2022/04/11 22:33:27;;;;;;;125.40;53.70;;;;;;;;;;10440413;28;20037;-69
2022/04/11 22:38:31;;;;;;;109.13;46.70;;;;;;;;;;10439275;28;20403;-72
2022/04/11 22:43:33;;;;;;;91.07;39.05;;;;;;;;;;10438909;28;20045;-70
2022/04/11 22:48:37;;;;;;;79.25;37.97;;;;;;;;;;10440494;28;20272;-71
2022/04/11 22:53:40;;;;;;;92.32;40.30;;;;;;;;;;10438138;28;20068;-70
2022/04/11 22:58:42;;;;;;;82.88;38.22;;;;;;;;;;10435441;28;20341;-70
2022/04/11 23:03:46;;;;;;;77.82;37.72;;;;;;;;;;10459605;28;20049;-71
2022/04/11 23:08:48;;;;;;;88.93;42.88;;;;;;;;;;10463045;28;20085;-71
2022/04/11 23:13:50;;;;;;;85.22;40.38;;;;;;;;;;10436751;28;20045;-71
2022/04/11 23:18:54;;;;;;;84.47;38.40;;;;;;;;;;10437306;28;20336;-72
2022/04/11 23:23:57;;;;;;;85.65;39.63;;;;;;;;;;10437085;28;20209;-71
2022/04/11 23:29:01;;;;;;;71.10;36.28;;;;;;;;;;10432937;28;20073;-71
2022/04/11 23:34:05;;;;;;;76.18;37.00;;;;;;;;;;10396754;28;20056;-72
2022/04/11 23:39:08;;;;;;;91.15;44.22;;;;;;;;;;10424128;28;20271;-71
2022/04/11 23:44:10;;;;;;;77.38;36.25;;;;;;;;;;10435750;28;20092;-71
2022/04/11 23:49:14;;;;;;;82.93;39.95;;;;;;;;;;10436918;28;20041;-71
2022/04/11 23:54:16;;;;;;;83.25;39.17;;;;;;;;;;10437047;28;20042;-71
2022/04/11 23:59:19;;;;;;;80.18;36.78;;;;;;;;;;10434142;28;20355;-72
